createdAt,value
2017-11-11T00:01:22.355Z,4.60
2017-11-11T00:03:48.942Z,4.73
2017-11-11T00:06:15.517Z,4.50
2017-11-11T00:08:42.138Z,4.90
2017-11-11T00:11:08.718Z,4.97
2017-11-11T00:13:35.309Z,4.93
2017-11-11T00:16:01.914Z,5.67
2017-11-11T00:18:28.493Z,4.80
2017-11-11T00:20:55.075Z,4.90
2017-11-11T00:23:21.642Z,5.00
2017-11-11T00:25:48.255Z,4.97
2017-11-11T00:28:14.831Z,5.50
2017-11-11T00:30:41.410Z,5.40
2017-11-11T00:33:07.998Z,5.23
2017-11-11T00:35:34.586Z,4.80
2017-11-11T00:38:01.178Z,4.63
2017-11-11T00:40:27.758Z,4.43
2017-11-11T00:42:54.354Z,4.30
2017-11-11T00:45:20.930Z,4.17
2017-11-11T00:47:47.510Z,4.70
2017-11-11T00:50:14.090Z,4.80
2017-11-11T00:52:40.670Z,5.07
2017-11-11T00:55:07.261Z,4.77
2017-11-11T00:57:33.852Z,5.27
2017-11-11T01:00:00.433Z,6.10
2017-11-11T01:02:27.018Z,5.77
2017-11-11T01:04:53.598Z,5.30
2017-11-11T01:07:20.190Z,5.30
2017-11-11T01:09:46.780Z,5.27
2017-11-11T01:12:13.349Z,4.93
2017-11-11T01:14:39.930Z,5.23
2017-11-11T01:17:06.514Z,5.40
2017-11-11T01:19:33.102Z,4.90
2017-11-11T01:21:59.688Z,5.20
2017-11-11T01:24:26.279Z,4.97
2017-11-11T01:26:52.855Z,4.60
2017-11-11T01:29:19.445Z,4.93
2017-11-11T01:31:46.023Z,4.80
2017-11-11T01:34:12.602Z,4.97
2017-11-11T01:36:39.190Z,5.40
2017-11-11T01:39:05.770Z,4.63
2017-11-11T01:41:32.383Z,4.67
2017-11-11T01:43:58.959Z,4.80
2017-11-11T01:46:25.555Z,5.37
2017-11-11T01:48:52.130Z,5.30
2017-11-11T01:51:18.715Z,4.73
2017-11-11T01:53:45.294Z,4.80
2017-11-11T01:56:11.878Z,5.13
2017-11-11T01:58:38.461Z,5.00
2017-11-11T02:01:05.063Z,5.07
2017-11-11T02:03:31.642Z,4.67
2017-11-11T02:05:58.222Z,5.27
2017-11-11T02:08:24.800Z,4.77
2017-11-11T02:10:51.384Z,4.63
2017-11-11T02:13:17.963Z,5.33
2017-11-11T02:15:44.558Z,5.30
2017-11-11T02:18:11.138Z,4.97
2017-11-11T02:20:37.724Z,5.00
2017-11-11T02:23:04.302Z,5.20
2017-11-11T02:25:30.883Z,5.10
2017-11-11T02:27:57.470Z,4.93
2017-11-11T02:30:24.045Z,4.47
2017-11-11T02:32:50.630Z,4.80
2017-11-11T02:35:17.206Z,4.50
2017-11-11T02:37:43.818Z,5.33
2017-11-11T02:40:10.397Z,4.97
2017-11-11T02:42:36.978Z,5.30
2017-11-11T02:45:03.566Z,5.00
2017-11-11T02:47:30.147Z,4.80
2017-11-11T02:49:56.729Z,5.83
2017-11-11T02:52:23.313Z,5.30
2017-11-11T02:54:49.915Z,4.67
2017-11-11T02:57:16.489Z,5.30
2017-11-11T02:59:43.071Z,5.93
2017-11-11T03:02:09.652Z,4.50
2017-11-11T03:04:36.228Z,5.20
2017-11-11T03:07:02.812Z,5.00
2017-11-11T03:09:29.391Z,5.50
2017-11-11T03:11:56.001Z,4.70
2017-11-11T03:14:22.562Z,4.90
2017-11-11T03:16:49.147Z,4.77
2017-11-11T03:19:15.727Z,4.90
2017-11-11T03:21:42.310Z,5.23
2017-11-11T03:24:08.908Z,5.10
2017-11-11T03:26:35.478Z,5.13
2017-11-11T03:29:02.091Z,5.73
2017-11-11T03:31:28.661Z,4.97
2017-11-11T03:33:55.237Z,5.50
2017-11-11T03:36:21.822Z,4.40
2017-11-11T03:38:48.406Z,4.97
2017-11-11T03:41:14.990Z,4.80
2017-11-11T03:43:41.587Z,5.40
2017-11-11T03:46:08.183Z,4.50
2017-11-11T03:48:34.929Z,4.70
2017-11-11T03:51:01.519Z,5.10
2017-11-11T03:53:28.116Z,4.80
2017-11-11T03:55:54.682Z,4.40
2017-11-11T03:58:21.269Z,4.73
2017-11-11T04:00:47.850Z,4.40
2017-11-11T04:03:14.446Z,3.83
2017-11-11T04:05:41.013Z,4.40
2017-11-11T04:08:07.596Z,4.70
2017-11-11T04:10:34.182Z,4.30
2017-11-11T04:13:00.762Z,4.73
2017-11-11T04:15:27.346Z,5.03
2017-11-11T04:17:53.926Z,4.70
2017-11-11T04:20:20.518Z,6.00
2017-11-11T04:22:47.100Z,4.97
2017-11-11T04:25:13.669Z,4.63
2017-11-11T04:27:40.258Z,3.93
2017-11-11T04:30:06.839Z,4.20
2017-11-11T04:32:33.430Z,4.27
2017-11-11T04:35:00.008Z,4.10
2017-11-11T04:37:26.595Z,4.50
2017-11-11T04:39:53.170Z,4.80
2017-11-11T04:42:19.741Z,4.23
2017-11-11T04:44:46.335Z,4.93
2017-11-11T04:47:12.910Z,4.00
2017-11-11T04:49:39.490Z,4.40
2017-11-11T04:52:06.076Z,4.23
2017-11-11T04:54:32.662Z,4.10
2017-11-11T04:56:59.250Z,5.17
2017-11-11T04:59:25.835Z,4.80
2017-11-11T05:01:52.427Z,4.13
2017-11-11T05:04:19.018Z,4.30
2017-11-11T05:06:45.594Z,4.00
2017-11-11T05:09:12.186Z,4.40
2017-11-11T05:11:38.801Z,4.23
2017-11-11T05:14:05.537Z,4.33
2017-11-11T05:16:32.110Z,3.77
2017-11-11T05:18:58.743Z,4.37
2017-11-11T05:21:25.346Z,3.50
2017-11-11T05:23:51.923Z,4.43
2017-11-11T05:26:18.540Z,4.00
2017-11-11T05:28:45.112Z,3.83
2017-11-11T05:31:11.698Z,3.80
2017-11-11T05:33:38.290Z,3.80
2017-11-11T05:36:04.882Z,3.63
2017-11-11T05:38:31.476Z,3.80
2017-11-11T05:40:58.046Z,3.47
2017-11-11T05:43:24.644Z,4.33
2017-11-11T05:45:51.225Z,3.63
2017-11-11T05:48:17.802Z,3.90
2017-11-11T05:50:44.386Z,3.17
2017-11-11T05:53:10.959Z,3.20
2017-11-11T05:55:37.554Z,3.20
2017-11-11T05:58:04.134Z,3.37
2017-11-11T06:00:30.709Z,4.60
2017-11-11T06:02:57.300Z,4.30
2017-11-11T06:05:23.874Z,4.20
2017-11-11T06:07:50.466Z,3.73
2017-11-11T06:10:17.046Z,4.03
2017-11-11T06:12:43.630Z,3.60
2017-11-11T06:15:10.215Z,3.97
2017-11-11T06:17:36.796Z,3.40
2017-11-11T06:20:03.385Z,3.50
2017-11-11T06:22:29.968Z,3.47
2017-11-11T06:24:56.536Z,3.50
2017-11-11T06:27:23.128Z,3.50
2017-11-11T06:29:49.721Z,3.70
2017-11-11T06:32:16.307Z,3.97
2017-11-11T06:34:42.887Z,3.80
2017-11-11T06:37:09.467Z,3.93
2017-11-11T06:39:36.056Z,4.20
2017-11-11T06:42:02.642Z,3.27
2017-11-11T06:44:29.226Z,3.93
2017-11-11T06:46:55.798Z,3.97
2017-11-11T06:49:22.384Z,4.00
2017-11-11T06:51:48.966Z,3.30
2017-11-11T06:54:15.566Z,4.13
2017-11-11T06:56:42.147Z,3.77
2017-11-11T06:59:08.727Z,3.40
2017-11-11T07:01:35.334Z,3.83
2017-11-11T07:04:01.939Z,3.77
2017-11-11T07:06:28.510Z,3.87
2017-11-11T07:08:55.098Z,4.00
2017-11-11T07:11:21.694Z,4.30
2017-11-11T07:13:48.270Z,3.10
2017-11-11T07:16:14.850Z,3.13
2017-11-11T07:18:41.430Z,3.33
2017-11-11T07:21:08.025Z,3.63
2017-11-11T07:23:34.598Z,3.50
2017-11-11T07:26:01.195Z,3.07
2017-11-11T07:28:27.754Z,3.80
2017-11-11T07:30:54.326Z,3.00
2017-11-11T07:33:20.910Z,2.90
2017-11-11T07:35:47.496Z,3.20
2017-11-11T07:38:14.082Z,3.00
2017-11-11T07:40:40.663Z,3.20
2017-11-11T07:43:07.239Z,3.10
2017-11-11T07:45:33.819Z,2.60
2017-11-11T07:48:00.402Z,3.20
2017-11-11T07:50:26.974Z,3.10
2017-11-11T07:52:53.551Z,2.60
2017-11-11T07:55:20.129Z,2.20
2017-11-11T07:57:46.715Z,2.77
2017-11-11T08:00:13.299Z,2.30
2017-11-11T08:02:39.867Z,2.40
2017-11-11T08:05:06.447Z,2.20
2017-11-11T08:07:33.026Z,2.90
2017-11-11T08:09:59.606Z,2.67
2017-11-11T08:12:26.199Z,3.00
2017-11-11T08:14:52.773Z,2.60
2017-11-11T08:17:19.353Z,2.50
2017-11-11T08:19:45.927Z,2.60
2017-11-11T08:22:12.507Z,2.80
2017-11-11T08:24:39.088Z,2.73
2017-11-11T08:27:05.670Z,2.20
2017-11-11T08:29:32.251Z,2.70
2017-11-11T08:31:58.854Z,2.50
2017-11-11T08:34:25.433Z,2.70
2017-11-11T08:36:52.033Z,2.70
2017-11-11T08:39:18.597Z,2.47
2017-11-11T08:41:45.175Z,3.10
2017-11-11T08:44:11.754Z,2.50
2017-11-11T08:46:38.323Z,2.93
2017-11-11T08:49:04.906Z,2.53
2017-11-11T08:51:31.843Z,2.80
2017-11-11T08:53:58.511Z,2.93
2017-11-11T08:56:25.084Z,2.90
2017-11-11T08:58:51.659Z,3.03
2017-11-11T09:01:18.241Z,2.60
2017-11-11T09:03:44.810Z,3.07
2017-11-11T09:06:11.407Z,2.87
2017-11-11T09:08:37.998Z,2.83
2017-11-11T09:11:04.589Z,3.33
2017-11-11T09:13:31.160Z,2.90
2017-11-11T09:15:57.725Z,3.10
2017-11-11T09:18:24.306Z,2.63
2017-11-11T09:20:50.882Z,2.80
2017-11-11T09:23:17.457Z,3.10
2017-11-11T09:25:44.051Z,2.70
2017-11-11T09:28:10.631Z,3.27
2017-11-11T09:30:37.205Z,3.20
2017-11-11T09:33:03.778Z,3.50
2017-11-11T09:35:30.363Z,3.23
2017-11-11T09:37:56.944Z,3.53
2017-11-11T09:40:23.537Z,3.30
2017-11-11T09:42:50.114Z,3.80
2017-11-11T09:45:16.718Z,4.00
2017-11-11T09:47:43.303Z,4.73
2017-11-11T09:50:09.900Z,4.63
2017-11-11T09:52:36.462Z,3.87
2017-11-11T09:55:03.058Z,4.80
2017-11-11T09:57:29.656Z,5.10
2017-11-11T09:59:56.233Z,4.50
2017-11-11T10:02:22.810Z,4.87
2017-11-11T10:04:49.390Z,4.60
2017-11-11T10:07:15.977Z,3.50
2017-11-11T10:09:42.553Z,4.17
2017-11-11T10:12:09.117Z,3.73
2017-11-11T10:14:35.709Z,4.40
2017-11-11T10:17:02.298Z,4.37
2017-11-11T10:19:28.881Z,4.00
2017-11-11T10:21:55.459Z,4.50
2017-11-11T10:24:22.047Z,4.40
2017-11-11T10:26:48.626Z,4.40
2017-11-11T10:29:15.219Z,4.90
2017-11-11T10:31:41.805Z,5.50
2017-11-11T10:34:08.391Z,4.90
2017-11-11T10:36:34.962Z,4.70
2017-11-11T10:39:01.544Z,5.07
2017-11-11T10:41:28.121Z,5.10
2017-11-11T10:43:54.694Z,5.30
2017-11-11T10:46:21.289Z,5.50
2017-11-11T10:48:47.869Z,5.50
2017-11-11T10:51:14.441Z,5.27
2017-11-11T10:53:41.035Z,5.57
2017-11-11T10:56:07.610Z,6.07
2017-11-11T10:58:34.237Z,5.53
2017-11-11T11:01:00.810Z,5.80
2017-11-11T11:03:27.443Z,5.97
2017-11-11T11:05:54.025Z,6.37
2017-11-11T11:08:20.601Z,6.30
2017-11-11T11:10:47.190Z,6.10
2017-11-11T11:13:13.809Z,6.20
2017-11-11T11:15:40.374Z,6.10
2017-11-11T11:18:06.942Z,5.23
2017-11-11T11:20:33.580Z,6.60
2017-11-11T11:23:00.169Z,5.50
2017-11-11T11:25:26.737Z,5.57
2017-11-11T11:27:53.318Z,5.73
2017-11-11T11:30:19.894Z,5.60
2017-11-11T11:32:46.484Z,5.73
2017-11-11T11:35:13.062Z,5.63
2017-11-11T11:37:39.668Z,6.63
2017-11-11T11:40:06.229Z,6.30
2017-11-11T11:42:32.819Z,5.57
2017-11-11T11:44:59.405Z,6.30
2017-11-11T11:47:25.983Z,6.50
2017-11-11T11:49:52.568Z,6.00
2017-11-11T11:52:19.171Z,5.90
2017-11-11T11:54:45.706Z,5.60
2017-11-11T11:57:12.293Z,5.40
2017-11-11T11:59:38.873Z,5.93
2017-11-11T12:02:05.459Z,4.80
2017-11-11T12:04:32.043Z,4.40
2017-11-11T12:06:58.618Z,4.70
2017-11-11T12:09:25.194Z,4.93
2017-11-11T12:11:51.771Z,4.53
2017-11-11T12:14:18.354Z,4.63
2017-11-11T12:16:44.926Z,4.90
2017-11-11T12:19:11.502Z,4.33
2017-11-11T12:21:38.909Z,4.30
2017-11-11T12:24:05.490Z,3.90
2017-11-11T12:26:32.088Z,4.00
2017-11-11T12:28:58.663Z,3.77
2017-11-11T12:31:25.265Z,4.30
2017-11-11T12:33:51.827Z,4.50
2017-11-11T12:36:18.398Z,4.10
2017-11-11T12:38:44.977Z,3.83
2017-11-11T12:41:11.552Z,3.70
2017-11-11T12:43:38.130Z,3.87
2017-11-11T12:46:04.706Z,4.23
2017-11-11T12:48:31.295Z,4.10
2017-11-11T12:50:57.874Z,3.93
2017-11-11T12:53:24.446Z,4.20
2017-11-11T12:55:51.027Z,4.13
2017-11-11T12:58:17.606Z,4.20
2017-11-11T13:00:44.182Z,4.27
2017-11-11T13:03:10.758Z,3.87
2017-11-11T13:05:37.340Z,4.20
2017-11-11T13:08:03.915Z,3.60
2017-11-11T13:10:30.498Z,3.80
2017-11-11T13:12:57.080Z,4.50
2017-11-11T13:15:25.435Z,4.10
2017-11-11T13:17:52.178Z,3.80
2017-11-11T13:20:18.741Z,3.80
2017-11-11T13:22:45.323Z,4.50
2017-11-11T13:25:11.903Z,4.33
2017-11-11T13:27:38.491Z,4.70
2017-11-11T13:30:05.072Z,3.97
2017-11-11T13:32:31.681Z,3.80
2017-11-11T13:34:58.246Z,4.30
2017-11-11T13:37:25.794Z,4.10
2017-11-11T13:39:52.367Z,4.63
2017-11-11T13:42:18.943Z,5.20
2017-11-11T13:44:45.522Z,4.73
2017-11-11T13:47:12.104Z,4.90
2017-11-11T13:49:38.683Z,4.67
2017-11-11T13:52:05.263Z,5.00
2017-11-11T13:54:31.850Z,5.87
2017-11-11T13:56:58.423Z,3.70
2017-11-11T13:59:24.997Z,3.90
2017-11-11T14:01:51.574Z,3.80
2017-11-11T14:04:18.150Z,4.40
2017-11-11T14:06:44.845Z,4.20
2017-11-11T14:09:11.402Z,4.33
2017-11-11T14:11:37.986Z,4.87
2017-11-11T14:14:04.566Z,5.67
2017-11-11T14:16:31.146Z,5.00
2017-11-11T14:18:57.722Z,5.70
2017-11-11T14:21:24.310Z,7.27
2017-11-11T14:23:50.906Z,10.57
2017-11-11T14:26:17.478Z,9.57
2017-11-11T14:28:44.066Z,8.53
2017-11-11T14:31:10.662Z,9.60
2017-11-11T14:33:37.242Z,7.63
2017-11-11T14:36:03.828Z,8.60
2017-11-11T14:38:30.427Z,8.30
2017-11-11T14:40:57.009Z,9.40
2017-11-11T14:43:23.595Z,11.87
2017-11-11T14:45:50.179Z,9.80
2017-11-11T14:48:16.761Z,8.50
2017-11-11T14:50:43.349Z,8.47
2017-11-11T14:53:09.917Z,7.93
2017-11-11T14:55:36.497Z,8.30
2017-11-11T14:58:03.091Z,7.80
2017-11-11T15:00:29.671Z,8.23
2017-11-11T15:02:56.245Z,7.73
2017-11-11T15:05:22.828Z,7.33
2017-11-11T15:07:49.406Z,8.47
2017-11-11T15:10:16.038Z,8.80
2017-11-11T15:12:42.601Z,8.70
2017-11-11T15:15:09.182Z,9.03
2017-11-11T15:17:35.801Z,9.50
2017-11-11T15:20:02.366Z,9.23
2017-11-11T15:22:28.958Z,9.50
2017-11-11T15:24:55.533Z,9.47
2017-11-11T15:27:22.115Z,9.93
2017-11-11T15:29:48.707Z,9.67
2017-11-11T15:32:15.274Z,9.83
2017-11-11T15:34:41.877Z,10.20
2017-11-11T15:37:08.449Z,9.90
2017-11-11T15:39:35.034Z,11.00
2017-11-11T15:42:01.614Z,11.03
2017-11-11T15:44:28.190Z,11.30
2017-11-11T15:46:54.782Z,13.17
2017-11-11T15:49:21.382Z,14.50
2017-11-11T15:51:47.989Z,16.33
2017-11-11T15:54:14.574Z,16.70
2017-11-11T15:56:41.165Z,17.83
2017-11-11T15:59:07.752Z,17.37
2017-11-11T16:01:34.354Z,11.85
2017-11-11T16:04:01.050Z,14.32
2017-11-11T16:06:27.628Z,13.27
2017-11-11T16:08:54.218Z,12.77
2017-11-11T16:11:20.810Z,12.93
2017-11-11T16:13:47.387Z,12.50
2017-11-11T16:16:13.982Z,13.43
2017-11-11T16:18:40.579Z,14.47
2017-11-11T16:21:07.158Z,14.77
2017-11-11T16:23:33.762Z,17.00
2017-11-11T16:26:00.358Z,15.33
2017-11-11T16:28:26.940Z,14.50
2017-11-11T16:30:53.633Z,14.40
2017-11-11T16:33:20.207Z,12.90
2017-11-11T16:35:46.790Z,13.00
2017-11-11T16:38:13.384Z,14.23
2017-11-11T16:40:39.974Z,13.30
2017-11-11T16:43:06.796Z,13.60
2017-11-11T16:45:33.377Z,13.40
2017-11-11T16:47:59.955Z,13.93
2017-11-11T16:50:26.548Z,13.77
2017-11-11T16:52:54.219Z,14.47
2017-11-11T16:55:20.814Z,14.57
2017-11-11T16:57:47.402Z,14.07
2017-11-11T17:00:13.983Z,15.57
2017-11-11T17:02:40.578Z,15.23
2017-11-11T17:05:07.162Z,16.00
2017-11-11T17:07:33.745Z,16.10
2017-11-11T17:10:00.333Z,19.10
2017-11-11T17:12:26.910Z,23.93
2017-11-11T17:14:53.502Z,28.37
2017-11-11T17:17:20.086Z,25.77
2017-11-11T17:19:46.701Z,29.10
2017-11-11T17:22:13.277Z,26.77
2017-11-11T17:24:39.858Z,27.40
2017-11-11T17:27:06.455Z,23.50
2017-11-11T17:29:33.041Z,23.73
2017-11-11T17:31:59.677Z,22.83
2017-11-11T17:34:26.246Z,20.70
2017-11-11T17:36:52.886Z,19.13
2017-11-11T17:39:19.479Z,18.00
2017-11-11T17:41:46.111Z,16.30
2017-11-11T17:44:12.699Z,16.07
2017-11-11T17:46:39.286Z,14.40
2017-11-11T17:49:05.885Z,15.60
2017-11-11T17:51:32.494Z,15.63
2017-11-11T17:53:59.838Z,16.30
2017-11-11T17:56:26.426Z,16.63
2017-11-11T17:58:53.017Z,15.93
2017-11-11T18:01:19.610Z,15.40
2017-11-11T18:03:46.192Z,15.17
2017-11-11T18:06:12.778Z,15.27
2017-11-11T18:08:39.370Z,15.50
2017-11-11T18:11:05.950Z,14.87
2017-11-11T18:13:32.539Z,15.30
2017-11-11T18:15:59.131Z,17.10
2017-11-11T18:18:25.726Z,16.53
2017-11-11T18:20:52.314Z,18.13
2017-11-11T18:23:18.898Z,18.27
2017-11-11T18:25:45.508Z,17.20
2017-11-11T18:28:12.079Z,18.07
2017-11-11T18:30:38.673Z,18.40
2017-11-11T18:33:05.270Z,17.50
2017-11-11T18:35:31.861Z,16.80
2017-11-11T18:37:58.453Z,17.47
2017-11-11T18:40:25.037Z,17.80
2017-11-11T18:42:51.630Z,17.43
2017-11-11T18:45:18.218Z,16.50
2017-11-11T18:47:44.803Z,16.93
2017-11-11T18:50:11.395Z,16.23
2017-11-11T18:52:37.982Z,15.00
2017-11-11T18:55:04.598Z,17.77
2017-11-11T18:57:31.179Z,16.93
2017-11-11T18:59:57.773Z,16.83
2017-11-11T19:02:24.368Z,16.60
2017-11-11T19:04:50.960Z,16.43
2017-11-11T19:07:17.554Z,16.13
2017-11-11T19:09:44.146Z,16.73
2017-11-11T19:12:10.738Z,16.00
2017-11-11T19:14:37.327Z,16.97
2017-11-11T19:17:03.935Z,17.37
2017-11-11T19:19:30.513Z,17.07
2017-11-11T19:21:57.096Z,16.30
2017-11-11T19:24:23.677Z,16.20
2017-11-11T19:26:50.258Z,15.97
2017-11-11T19:29:16.858Z,15.80
2017-11-11T19:31:43.438Z,16.50
2017-11-11T19:34:10.018Z,16.83
2017-11-11T19:36:36.612Z,16.83
2017-11-11T19:39:03.208Z,15.90
2017-11-11T19:41:29.799Z,18.53
2017-11-11T19:43:56.381Z,19.30
2017-11-11T19:46:22.992Z,17.83
2017-11-11T19:48:49.574Z,17.83
2017-11-11T19:51:16.166Z,19.27
2017-11-11T19:53:42.756Z,25.10
2017-11-11T19:56:09.354Z,21.63
2017-11-11T19:58:35.975Z,21.57
2017-11-11T20:01:02.579Z,20.90
2017-11-11T20:03:29.261Z,21.97
2017-11-11T20:05:55.847Z,22.60
2017-11-11T20:08:22.426Z,21.33
2017-11-11T20:10:49.021Z,21.50
2017-11-11T20:13:15.595Z,23.43
2017-11-11T20:15:42.244Z,23.97
2017-11-11T20:18:08.826Z,24.33
2017-11-11T20:20:35.444Z,23.53
2017-11-11T20:23:02.041Z,24.17
2017-11-11T20:25:28.633Z,23.20
2017-11-11T20:27:55.214Z,24.73
2017-11-11T20:30:23.279Z,23.80
2017-11-11T20:32:50.014Z,24.10
2017-11-11T20:35:16.601Z,22.83
2017-11-11T20:37:43.215Z,23.63
2017-11-11T20:40:09.828Z,24.97
2017-11-11T20:42:44.762Z,23.30
2017-11-11T20:45:11.745Z,25.07
2017-11-11T20:47:38.318Z,23.90
2017-11-11T20:50:04.936Z,25.23
2017-11-11T20:52:31.517Z,25.87
2017-11-11T20:54:58.110Z,25.07
2017-11-11T20:57:24.744Z,25.27
2017-11-11T20:59:51.366Z,26.83
2017-11-11T21:02:17.954Z,24.70
2017-11-11T21:04:44.539Z,25.13
2017-11-11T21:07:11.170Z,25.57
2017-11-11T21:09:37.850Z,24.63
2017-11-11T21:12:04.446Z,24.77
2017-11-11T21:14:31.025Z,26.20
2017-11-11T21:16:57.622Z,23.70
2017-11-11T21:19:24.211Z,22.57
2017-11-11T21:21:50.807Z,21.87
2017-11-11T21:24:17.382Z,23.00
2017-11-11T21:26:43.962Z,23.23
2017-11-11T21:29:10.546Z,23.10
2017-11-11T21:31:37.142Z,21.83
2017-11-11T21:34:03.733Z,23.37
2017-11-11T21:36:30.322Z,24.23
2017-11-11T21:38:56.902Z,24.03
2017-11-11T21:41:23.500Z,25.20
2017-11-11T21:43:50.076Z,26.67
2017-11-11T21:46:16.666Z,31.57
2017-11-11T21:48:43.254Z,28.07
2017-11-11T21:51:09.915Z,29.13
2017-11-11T21:53:36.574Z,29.03
2017-11-11T21:56:03.456Z,31.60
2017-11-11T21:58:30.122Z,28.93
2017-11-11T22:00:57.570Z,29.80
2017-11-11T22:03:24.161Z,29.50
2017-11-11T22:05:50.750Z,25.93
2017-11-11T22:08:17.330Z,26.40
2017-11-11T22:10:43.917Z,26.87
2017-11-11T22:13:10.502Z,25.80
2017-11-11T22:15:37.098Z,30.00
2017-11-11T22:18:03.714Z,30.33
2017-11-11T22:20:30.302Z,29.20
2017-11-11T22:22:56.925Z,27.53
2017-11-11T22:25:23.523Z,28.43
2017-11-11T22:27:50.972Z,26.03
2017-11-11T22:30:17.574Z,24.90
2017-11-11T22:32:44.161Z,24.40
2017-11-11T22:35:10.749Z,24.20
2017-11-11T22:37:37.355Z,24.20
2017-11-11T22:40:07.130Z,23.73
2017-11-11T22:42:34.920Z,22.90
2017-11-11T22:45:01.502Z,23.00
2017-11-11T22:47:28.087Z,22.80
2017-11-11T22:49:54.669Z,23.27
2017-11-11T22:52:21.250Z,23.47
2017-11-11T22:54:47.851Z,22.00
2017-11-11T22:57:14.433Z,21.70
2017-11-11T22:59:41.021Z,23.50
2017-11-11T23:02:07.611Z,22.27
2017-11-11T23:04:34.236Z,21.70
2017-11-11T23:07:00.813Z,22.07
2017-11-11T23:09:27.393Z,21.70
2017-11-11T23:11:53.981Z,22.23
2017-11-11T23:14:20.569Z,21.57
2017-11-11T23:16:47.150Z,21.07
2017-11-11T23:19:13.750Z,22.00
2017-11-11T23:21:40.329Z,20.77
2017-11-11T23:24:06.933Z,21.27
2017-11-11T23:26:33.503Z,21.90
2017-11-11T23:29:00.098Z,21.07
2017-11-11T23:31:26.683Z,19.97
2017-11-11T23:33:53.262Z,21.13
2017-11-11T23:36:19.853Z,20.80
2017-11-11T23:38:46.433Z,21.33
2017-11-11T23:41:13.018Z,21.10
2017-11-11T23:43:39.600Z,21.40
2017-11-11T23:46:06.202Z,22.40
2017-11-11T23:48:32.786Z,20.63
2017-11-11T23:50:59.382Z,22.10
2017-11-11T23:53:25.978Z,19.23
2017-11-11T23:55:52.558Z,20.50
2017-11-11T23:58:19.139Z,20.53
